Time;durP1;ratioP1;P1;durP2;ratioP2;P2;SDS_P1;SDS_P2;PMS_P1;PMS_P2;Temp;Humidity;BMP_temperature;BMP_pressure;BME280_temperature;BME280_humidity;BME280_pressure;Samples;Min_cycle;Max_cycle;Signal;HPM_P1;HPM_P2
2021/12/29 00:00:51;;;;;;;6.65;4.57;;;;;;;;;;5030727;28;20013;-67
2021/12/29 00:03:16;;;;;;;8.63;5.13;;;;;;;;;;5031083;28;20017;-66
2021/12/29 00:05:42;;;;;;;9.70;5.70;;;;;;;;;;5030596;28;20300;-67
2021/12/29 00:08:07;;;;;;;8.15;4.75;;;;;;;;;;5031081;28;20433;-66
2021/12/29 00:10:33;;;;;;;9.48;5.28;;;;;;;;;;5030488;28;20031;-66
2021/12/29 00:12:58;;;;;;;11.48;5.60;;;;;;;;;;5031274;28;20083;-67
2021/12/29 00:15:26;;;;;;;9.20;5.57;;;;;;;;;;5036651;28;20362;-67
2021/12/29 00:17:51;;;;;;;12.35;5.20;;;;;;;;;;5035925;28;20470;-66
2021/12/29 00:20:18;;;;;;;10.23;5.95;;;;;;;;;;5030419;28;20026;-67
2021/12/29 00:22:43;;;;;;;10.82;5.90;;;;;;;;;;5030429;28;20021;-67
2021/12/29 00:25:08;;;;;;;10.90;6.95;;;;;;;;;;5030977;28;20032;-67
2021/12/29 00:27:34;;;;;;;11.88;5.85;;;;;;;;;;5030876;28;20025;-67
2021/12/29 00:29:59;;;;;;;11.73;5.65;;;;;;;;;;5030605;28;20028;-66
2021/12/29 00:32:24;;;;;;;10.45;6.75;;;;;;;;;;5030211;28;20036;-67
2021/12/29 00:34:50;;;;;;;8.90;5.38;;;;;;;;;;5030289;28;20028;-67
2021/12/29 00:37:15;;;;;;;11.95;6.90;;;;;;;;;;5030368;28;20466;-67
2021/12/29 00:39:40;;;;;;;10.15;5.15;;;;;;;;;;5035217;28;20031;-67
2021/12/29 00:42:05;;;;;;;9.88;5.68;;;;;;;;;;5030374;28;20048;-67
2021/12/29 00:44:32;;;;;;;16.08;6.63;;;;;;;;;;5029995;28;20022;-67
2021/12/29 00:46:58;;;;;;;8.38;4.88;;;;;;;;;;5030182;28;20486;-66
2021/12/29 00:49:30;;;;;;;11.13;5.07;;;;;;;;;;5030534;28;20029;-67
2021/12/29 00:51:56;;;;;;;9.55;5.78;;;;;;;;;;5030768;28;20021;-67
2021/12/29 00:54:21;;;;;;;17.20;6.22;;;;;;;;;;5041568;28;20031;-67
2021/12/29 00:56:47;;;;;;;10.23;4.97;;;;;;;;;;5029778;28;20466;-67
2021/12/29 00:59:13;;;;;;;8.93;5.85;;;;;;;;;;5030213;28;20030;-67
2021/12/29 01:01:38;;;;;;;13.82;5.90;;;;;;;;;;5029792;28;20025;-66
2021/12/29 01:04:04;;;;;;;11.73;5.70;;;;;;;;;;5031728;28;20017;-67
2021/12/29 01:06:29;;;;;;;12.75;6.20;;;;;;;;;;5034288;28;20367;-67
2021/12/29 01:08:54;;;;;;;11.65;6.30;;;;;;;;;;5034405;28;20028;-67
2021/12/29 01:11:20;;;;;;;17.47;8.90;;;;;;;;;;5033807;28;20076;-66
2021/12/29 01:13:48;;;;;;;18.15;8.98;;;;;;;;;;5034573;28;20268;-67
2021/12/29 01:18:58;;;;;;;15.10;8.63;;;;;;;;;;5034121;28;20044;-66
2021/12/29 01:21:23;;;;;;;15.93;8.48;;;;;;;;;;5033160;28;20013;-66
2021/12/29 01:23:49;;;;;;;13.65;8.07;;;;;;;;;;5034249;28;20018;-66
2021/12/29 01:26:14;;;;;;;14.82;9.05;;;;;;;;;;5034001;28;20363;-67
2021/12/29 01:28:39;;;;;;;19.38;7.90;;;;;;;;;;5034608;28;20214;-67
2021/12/29 01:31:04;;;;;;;15.00;9.57;;;;;;;;;;5032617;28;20430;-67
2021/12/29 01:33:29;;;;;;;13.50;8.83;;;;;;;;;;5042893;28;20021;-67
2021/12/29 01:39:34;;;;;;;14.48;9.68;;;;;;;;;;5026139;28;20025;-90
2021/12/29 01:42:12;;;;;;;14.32;8.80;;;;;;;;;;5031350;28;20033;-89
2021/12/29 01:44:52;;;;;;;13.48;7.38;;;;;;;;;;5028788;28;20079;-89
2021/12/29 01:51:16;;;;;;;;;;;;;;;;;;;;;
2021/12/29 01:57:22;;;;;;;;;;;;;;;;;;;;;
2021/12/29 02:00:05;;;;;;;14.52;8.07;;;;;;;;;;4985437;28;20023;-88
2021/12/29 02:05:37;;;;;;;14.20;7.82;;;;;;;;;;5018657;28;20025;-89
2021/12/29 02:11:48;;;;;;;;;;;;;;;;;;;;;
2021/12/29 02:17:23;;;;;;;17.40;8.38;;;;;;;;;;5008640;28;20421;-88
2021/12/29 02:20:20;;;;;;;12.93;7.80;;;;;;;;;;5030616;28;20033;-89
2021/12/29 02:23:11;;;;;;;;;;;;;;;;;;;;;
2021/12/29 02:26:06;;;;;;;15.43;9.27;;;;;;;;;;5023628;28;20029;-89
2021/12/29 02:29:01;;;;;;;;;;;;;;;;;;;;;
2021/12/29 02:32:05;;;;;;;15.00;7.28;;;;;;;;;;5021274;28;20036;-89
2021/12/29 02:37:43;;;;;;;15.60;7.82;;;;;;;;;;5031123;28;20049;-88
2021/12/29 02:42:41;;;;;;;13.48;8.73;;;;;;;;;;5011216;28;20050;-67
2021/12/29 02:45:07;;;;;;;14.50;7.10;;;;;;;;;;5012934;28;20015;-67
2021/12/29 02:47:32;;;;;;;14.55;7.60;;;;;;;;;;4994762;28;20021;-67
2021/12/29 02:49:58;;;;;;;10.13;6.57;;;;;;;;;;5012790;28;20096;-67
2021/12/29 02:52:24;;;;;;;15.40;7.97;;;;;;;;;;5011643;28;20061;-67
2021/12/29 02:54:50;;;;;;;11.20;5.72;;;;;;;;;;5036195;23;20022;-68
2021/12/29 02:57:15;;;;;;;11.68;6.95;;;;;;;;;;5012736;28;20062;-68
2021/12/29 02:59:40;;;;;;;10.32;8.02;;;;;;;;;;5011027;28;20021;-68
2021/12/29 03:02:05;;;;;;;14.90;7.50;;;;;;;;;;5011415;28;20037;-69
2021/12/29 03:04:31;;;;;;;13.68;7.88;;;;;;;;;;5013370;28;20256;-68
2021/12/29 03:06:56;;;;;;;13.90;8.15;;;;;;;;;;5022737;28;20113;-68
2021/12/29 03:09:21;;;;;;;13.85;8.60;;;;;;;;;;5010931;28;20036;-67
2021/12/29 03:11:46;;;;;;;16.40;10.48;;;;;;;;;;5011340;28;20501;-69
2021/12/29 03:14:12;;;;;;;17.55;10.13;;;;;;;;;;5011826;28;20033;-68
2021/12/29 03:16:37;;;;;;;13.60;9.75;;;;;;;;;;5011687;28;20044;-68
2021/12/29 03:19:03;;;;;;;15.85;8.68;;;;;;;;;;5010392;28;20061;-68
2021/12/29 03:21:30;;;;;;;16.92;8.02;;;;;;;;;;5011213;28;20034;-68
2021/12/29 03:23:55;;;;;;;14.18;8.70;;;;;;;;;;5012197;28;20523;-68
2021/12/29 03:26:20;;;;;;;12.40;8.30;;;;;;;;;;5011157;28;20026;-69
2021/12/29 03:28:45;;;;;;;16.63;8.35;;;;;;;;;;5014010;28;20018;-68
2021/12/29 03:31:14;;;;;;;17.13;10.18;;;;;;;;;;5021120;28;20075;-68
2021/12/29 03:33:40;;;;;;;16.42;7.40;;;;;;;;;;5011614;28;20069;-69
2021/12/29 03:36:05;;;;;;;23.17;9.73;;;;;;;;;;5011696;28;20486;-68
2021/12/29 03:38:33;;;;;;;16.63;9.88;;;;;;;;;;5011580;28;20387;-69
2021/12/29 03:40:59;;;;;;;17.58;8.80;;;;;;;;;;5017006;28;20033;-68
2021/12/29 03:43:25;;;;;;;18.17;9.63;;;;;;;;;;5011842;28;20521;-67
2021/12/29 03:45:51;;;;;;;15.25;8.73;;;;;;;;;;5011172;28;20028;-68
2021/12/29 03:48:18;;;;;;;13.68;9.85;;;;;;;;;;5011415;28;20072;-68
2021/12/29 03:50:43;;;;;;;16.63;10.02;;;;;;;;;;5010211;28;20024;-68
2021/12/29 03:53:08;;;;;;;17.27;10.20;;;;;;;;;;5011068;28;20398;-68
2021/12/29 03:55:33;;;;;;;16.98;8.90;;;;;;;;;;5010945;28;20104;-69
2021/12/29 03:57:59;;;;;;;21.27;10.52;;;;;;;;;;5011044;28;20026;-67
2021/12/29 04:00:24;;;;;;;20.70;9.90;;;;;;;;;;5010488;28;20029;-68
2021/12/29 04:02:49;;;;;;;19.98;11.20;;;;;;;;;;5010863;28;20289;-68
2021/12/29 04:05:16;;;;;;;20.27;11.15;;;;;;;;;;5010393;28;20018;-67
2021/12/29 04:07:42;;;;;;;23.77;13.38;;;;;;;;;;5011302;28;20030;-68
2021/12/29 04:10:07;;;;;;;25.23;11.68;;;;;;;;;;5011658;28;20314;-67
2021/12/29 04:12:33;;;;;;;22.38;10.98;;;;;;;;;;5010758;28;20021;-68
2021/12/29 04:14:58;;;;;;;27.73;13.00;;;;;;;;;;5011264;28;20430;-69
2021/12/29 04:17:29;;;;;;;25.65;12.95;;;;;;;;;;5010770;28;20017;-68
2021/12/29 04:22:38;;;;;;;22.27;11.85;;;;;;;;;;5007186;28;20032;-68
2021/12/29 04:25:04;;;;;;;21.58;13.23;;;;;;;;;;5011099;28;20026;-69
2021/12/29 04:27:29;;;;;;;23.60;13.18;;;;;;;;;;5010928;28;20498;-68
2021/12/29 04:29:54;;;;;;;23.85;12.88;;;;;;;;;;5016105;28;20521;-68
2021/12/29 04:32:19;;;;;;;25.42;13.63;;;;;;;;;;5010374;28;20522;-68
2021/12/29 04:34:45;;;;;;;22.20;11.37;;;;;;;;;;5018037;28;20045;-68
2021/12/29 04:37:10;;;;;;;22.05;12.63;;;;;;;;;;5021309;28;20319;-68
2021/12/29 04:39:35;;;;;;;20.58;11.57;;;;;;;;;;5012362;28;20104;-68
2021/12/29 04:42:01;;;;;;;24.83;12.65;;;;;;;;;;5014928;28;20079;-68
2021/12/29 04:44:26;;;;;;;23.85;10.57;;;;;;;;;;5011384;28;20371;-69
2021/12/29 04:46:51;;;;;;;20.13;11.73;;;;;;;;;;5009930;28;20242;-68
2021/12/29 04:49:22;;;;;;;21.27;11.23;;;;;;;;;;5010626;28;20434;-68
2021/12/29 04:51:54;;;;;;;20.23;10.98;;;;;;;;;;5010072;28;20029;-68
2021/12/29 04:54:19;;;;;;;23.52;11.07;;;;;;;;;;5010116;28;20029;-68
2021/12/29 04:56:45;;;;;;;23.38;10.98;;;;;;;;;;5010050;28;20113;-67
2021/12/29 04:59:10;;;;;;;24.48;13.20;;;;;;;;;;5010770;28;20018;-68
2021/12/29 05:01:35;;;;;;;23.90;11.07;;;;;;;;;;5010233;28;20030;-68
2021/12/29 05:04:01;;;;;;;23.02;12.80;;;;;;;;;;5010416;28;20487;-68
2021/12/29 05:09:10;;;;;;;21.83;12.20;;;;;;;;;;5010513;28;20100;-68
2021/12/29 05:11:35;;;;;;;22.30;11.52;;;;;;;;;;5010028;28;20380;-68
2021/12/29 05:14:01;;;;;;;25.00;10.57;;;;;;;;;;5010999;28;20032;-68
2021/12/29 05:16:28;;;;;;;22.38;12.50;;;;;;;;;;5011760;28;20316;-68
2021/12/29 05:18:53;;;;;;;24.75;10.38;;;;;;;;;;4999922;28;20024;-68
2021/12/29 05:21:19;;;;;;;23.65;11.73;;;;;;;;;;5009885;28;20018;-68
2021/12/29 05:23:44;;;;;;;27.07;14.87;;;;;;;;;;5010211;28;20030;-68
2021/12/29 05:26:09;;;;;;;29.77;15.17;;;;;;;;;;5009853;28;20264;-68
2021/12/29 05:28:34;;;;;;;29.88;14.50;;;;;;;;;;5010511;28;20339;-68
2021/12/29 05:31:00;;;;;;;32.25;13.68;;;;;;;;;;5021501;28;20022;-68
2021/12/29 05:33:25;;;;;;;27.00;13.32;;;;;;;;;;5009956;28;20083;-68
2021/12/29 05:35:50;;;;;;;31.50;14.73;;;;;;;;;;5010002;28;20061;-68
2021/12/29 05:38:15;;;;;;;24.90;13.45;;;;;;;;;;5009879;28;20293;-68
2021/12/29 05:40:40;;;;;;;24.77;13.85;;;;;;;;;;5014695;28;20026;-68
2021/12/29 05:43:06;;;;;;;27.40;12.35;;;;;;;;;;5010146;28;20018;-68
2021/12/29 05:45:31;;;;;;;17.65;11.40;;;;;;;;;;5009711;28;20087;-68
2021/12/29 05:47:56;;;;;;;24.48;13.02;;;;;;;;;;5009546;28;20089;-68
2021/12/29 05:50:23;;;;;;;23.80;10.55;;;;;;;;;;5011702;28;20398;-68
2021/12/29 05:52:48;;;;;;;19.48;10.35;;;;;;;;;;5013659;28;20041;-67
2021/12/29 05:55:14;;;;;;;18.40;9.82;;;;;;;;;;5013488;28;20034;-68
2021/12/29 05:57:39;;;;;;;20.58;11.73;;;;;;;;;;5013404;28;20446;-68
2021/12/29 06:00:07;;;;;;;14.93;9.02;;;;;;;;;;5013590;28;20013;-68
2021/12/29 06:02:32;;;;;;;17.95;9.20;;;;;;;;;;5013374;28;20049;-67
2021/12/29 06:04:57;;;;;;;15.48;8.18;;;;;;;;;;5013782;28;20021;-68
2021/12/29 06:07:22;;;;;;;21.95;10.55;;;;;;;;;;5012968;28;20044;-68
2021/12/29 06:09:47;;;;;;;19.90;9.87;;;;;;;;;;5013372;28;20028;-67
2021/12/29 06:12:13;;;;;;;19.15;9.50;;;;;;;;;;5012721;28;20830;-68
2021/12/29 06:14:38;;;;;;;17.80;9.00;;;;;;;;;;5011920;28;20091;-68
2021/12/29 06:17:03;;;;;;;21.53;10.87;;;;;;;;;;5012916;28;20285;-67
2021/12/29 06:19:30;;;;;;;15.85;10.20;;;;;;;;;;5013037;28;20607;-68
2021/12/29 06:21:55;;;;;;;20.77;10.27;;;;;;;;;;5012772;28;20104;-68
2021/12/29 06:24:20;;;;;;;20.67;12.27;;;;;;;;;;5017620;28;20089;-68
2021/12/29 06:26:46;;;;;;;24.73;11.63;;;;;;;;;;5013008;28;20284;-67
2021/12/29 06:29:11;;;;;;;23.08;12.02;;;;;;;;;;5018031;28;20283;-67
2021/12/29 06:31:36;;;;;;;19.63;11.70;;;;;;;;;;5019085;28;20029;-68
2021/12/29 06:34:02;;;;;;;20.10;10.65;;;;;;;;;;5012698;28;20028;-68
2021/12/29 06:36:28;;;;;;;26.23;13.65;;;;;;;;;;5012102;28;20429;-68
2021/12/29 06:38:53;;;;;;;27.55;13.45;;;;;;;;;;5013033;28;20030;-68
2021/12/29 06:41:18;;;;;;;36.35;14.55;;;;;;;;;;5012649;28;20386;-68
2021/12/29 06:43:43;;;;;;;33.38;16.05;;;;;;;;;;5012643;28;20378;-68
2021/12/29 06:46:09;;;;;;;31.50;13.50;;;;;;;;;;5012546;28;20096;-68
2021/12/29 06:48:34;;;;;;;31.33;14.23;;;;;;;;;;5012452;28;20022;-68
2021/12/29 06:50:59;;;;;;;29.55;12.88;;;;;;;;;;5012003;28;20117;-68
2021/12/29 06:53:26;;;;;;;21.42;12.38;;;;;;;;;;5012585;28;20062;-68
2021/12/29 06:55:51;;;;;;;24.20;12.15;;;;;;;;;;5012398;28;20040;-68
2021/12/29 06:58:17;;;;;;;25.33;13.15;;;;;;;;;;5012643;28;20026;-68
2021/12/29 07:00:42;;;;;;;25.73;13.23;;;;;;;;;;5011705;28;20014;-68
2021/12/29 07:03:07;;;;;;;33.00;13.67;;;;;;;;;;5012410;28;20486;-67
2021/12/29 07:05:32;;;;;;;25.75;13.95;;;;;;;;;;5010374;28;20265;-68
2021/12/29 07:07:58;;;;;;;28.48;16.35;;;;;;;;;;5011985;28;20389;-68
2021/12/29 07:10:23;;;;;;;22.40;15.65;;;;;;;;;;5011627;28;20021;-68
2021/12/29 07:12:48;;;;;;;21.92;12.43;;;;;;;;;;5012168;28;20025;-68
2021/12/29 07:15:14;;;;;;;30.65;14.65;;;;;;;;;;5012015;28;20052;-67
2021/12/29 07:17:39;;;;;;;23.38;12.88;;;;;;;;;;5011763;28;20333;-68
2021/12/29 07:20:04;;;;;;;22.13;12.98;;;;;;;;;;5011929;28;20014;-68
2021/12/29 07:22:30;;;;;;;26.55;12.80;;;;;;;;;;5010795;28;20053;-68
2021/12/29 07:24:55;;;;;;;32.42;12.88;;;;;;;;;;5025740;28;20108;-68
2021/12/29 07:27:21;;;;;;;24.13;11.32;;;;;;;;;;5024476;28;20040;-68
2021/12/29 07:29:46;;;;;;;26.98;11.38;;;;;;;;;;5014539;28;20018;-68
2021/12/29 07:32:11;;;;;;;25.50;11.32;;;;;;;;;;5011634;28;20453;-68
2021/12/29 07:34:36;;;;;;;22.88;12.15;;;;;;;;;;5011719;28;20022;-68
2021/12/29 07:37:02;;;;;;;27.15;12.88;;;;;;;;;;5014104;28;20108;-68
2021/12/29 07:39:27;;;;;;;25.55;12.63;;;;;;;;;;5012035;28;20097;-68
2021/12/29 07:41:52;;;;;;;25.98;12.40;;;;;;;;;;5017263;28;20052;-68
2021/12/29 07:44:18;;;;;;;24.48;12.18;;;;;;;;;;5010222;28;20017;-68
2021/12/29 07:46:45;;;;;;;31.42;13.18;;;;;;;;;;5011387;28;20028;-68
2021/12/29 07:49:10;;;;;;;28.73;13.00;;;;;;;;;;5012541;28;20026;-68
2021/12/29 07:51:35;;;;;;;34.45;13.93;;;;;;;;;;5010572;28;20032;-68
2021/12/29 07:54:01;;;;;;;29.80;13.07;;;;;;;;;;5010262;28;20026;-68
2021/12/29 07:56:26;;;;;;;28.75;12.73;;;;;;;;;;5010877;28;20495;-68
2021/12/29 07:58:52;;;;;;;30.52;12.20;;;;;;;;;;5011313;28;20315;-68
2021/12/29 08:01:17;;;;;;;28.33;10.68;;;;;;;;;;5010810;28;20022;-68
2021/12/29 08:03:42;;;;;;;26.10;10.93;;;;;;;;;;5011214;28;20429;-68
2021/12/29 08:06:08;;;;;;;15.82;8.57;;;;;;;;;;5011098;28;20091;-68
2021/12/29 08:08:33;;;;;;;23.30;9.57;;;;;;;;;;5011032;28;20206;-68
2021/12/29 08:10:58;;;;;;;29.35;9.93;;;;;;;;;;5010938;28;20486;-67
2021/12/29 08:13:23;;;;;;;19.75;9.27;;;;;;;;;;5010077;28;20390;-68
2021/12/29 08:15:49;;;;;;;22.40;9.03;;;;;;;;;;5011440;28;20037;-68
2021/12/29 08:18:14;;;;;;;25.92;9.25;;;;;;;;;;5011617;28;20293;-68
2021/12/29 08:20:39;;;;;;;14.77;8.45;;;;;;;;;;5010733;28;20108;-68
2021/12/29 08:23:05;;;;;;;22.10;8.52;;;;;;;;;;5011329;28;20030;-67
2021/12/29 08:25:31;;;;;;;13.90;7.90;;;;;;;;;;5010863;28;20096;-67
2021/12/29 08:27:56;;;;;;;21.70;8.35;;;;;;;;;;5010964;28;20450;-68
2021/12/29 08:30:22;;;;;;;14.50;8.10;;;;;;;;;;5010035;28;20569;-67
2021/12/29 08:32:47;;;;;;;15.68;8.70;;;;;;;;;;5010872;28;20018;-67
2021/12/29 08:35:12;;;;;;;20.13;8.45;;;;;;;;;;5019601;28;20025;-67
2021/12/29 08:37:38;;;;;;;15.57;8.45;;;;;;;;;;5014647;28;20021;-68
2021/12/29 08:40:07;;;;;;;16.40;9.55;;;;;;;;;;5009814;28;20034;-66
2021/12/29 08:42:32;;;;;;;17.95;9.90;;;;;;;;;;5009138;28;20355;-68
2021/12/29 08:44:57;;;;;;;15.00;7.43;;;;;;;;;;5013441;28;20145;-68
2021/12/29 08:47:22;;;;;;;17.15;8.00;;;;;;;;;;5010598;28;20300;-68
2021/12/29 08:49:48;;;;;;;12.67;7.10;;;;;;;;;;5010563;28;20029;-68
2021/12/29 08:52:13;;;;;;;18.92;8.02;;;;;;;;;;5009882;28;20359;-68
2021/12/29 08:54:38;;;;;;;16.70;8.02;;;;;;;;;;5008093;28;20026;-68
2021/12/29 08:57:05;;;;;;;20.17;8.13;;;;;;;;;;5009975;28;20030;-67
2021/12/29 08:59:30;;;;;;;16.02;7.88;;;;;;;;;;5009332;28;20117;-68
2021/12/29 09:01:55;;;;;;;19.15;8.35;;;;;;;;;;5007935;28;21572;-67
2021/12/29 09:04:20;;;;;;;16.10;7.50;;;;;;;;;;5009720;28;20018;-68
2021/12/29 09:06:46;;;;;;;16.27;6.88;;;;;;;;;;5010084;28;20042;-68
2021/12/29 09:09:11;;;;;;;14.20;7.00;;;;;;;;;;5010451;28;20033;-68
2021/12/29 09:11:36;;;;;;;16.63;6.55;;;;;;;;;;5010125;28;20430;-66
2021/12/29 09:14:02;;;;;;;14.55;7.03;;;;;;;;;;5009127;28;20064;-67
2021/12/29 09:16:27;;;;;;;8.13;4.28;;;;;;;;;;5009763;28;20125;-67
2021/12/29 09:18:53;;;;;;;12.88;6.25;;;;;;;;;;5009711;28;20025;-68
2021/12/29 09:21:18;;;;;;;10.00;4.40;;;;;;;;;;5009796;28;20302;-68
2021/12/29 09:23:44;;;;;;;15.02;6.35;;;;;;;;;;5010263;28;20026;-68
2021/12/29 09:26:11;;;;;;;15.23;6.75;;;;;;;;;;5014246;28;20030;-68
2021/12/29 09:28:37;;;;;;;19.27;6.13;;;;;;;;;;5014200;28;20069;-68
2021/12/29 09:31:02;;;;;;;14.15;6.07;;;;;;;;;;5013897;28;20493;-68
2021/12/29 09:33:27;;;;;;;12.23;5.97;;;;;;;;;;5013528;28;20029;-67
2021/12/29 09:35:57;;;;;;;27.48;6.45;;;;;;;;;;5014094;28;20029;-67
2021/12/29 09:38:22;;;;;;;15.93;6.28;;;;;;;;;;5014031;28;20010;-68
2021/12/29 09:40:48;;;;;;;20.73;5.68;;;;;;;;;;5012246;28;20084;-67
2021/12/29 09:43:14;;;;;;;19.27;5.50;;;;;;;;;;5013436;28;20014;-68
2021/12/29 09:45:40;;;;;;;13.02;5.93;;;;;;;;;;5013767;28;20026;-67
2021/12/29 09:48:05;;;;;;;7.22;3.17;;;;;;;;;;5013354;28;20032;-67
2021/12/29 09:50:30;;;;;;;9.35;4.72;;;;;;;;;;5013075;28;20026;-68
2021/12/29 09:52:56;;;;;;;11.65;4.40;;;;;;;;;;5014655;28;20036;-68
2021/12/29 09:55:22;;;;;;;16.90;4.93;;;;;;;;;;5012441;28;20092;-68
2021/12/29 09:57:49;;;;;;;14.10;5.75;;;;;;;;;;5013382;28;20026;-68
2021/12/29 10:00:29;;;;;;;17.00;4.55;;;;;;;;;;5009782;28;20020;-68
2021/12/29 10:02:55;;;;;;;10.35;4.35;;;;;;;;;;5012933;28;20237;-68
2021/12/29 10:05:24;;;;;;;14.25;4.20;;;;;;;;;;5013188;28;20022;-68
2021/12/29 10:08:07;;;;;;;5.70;2.97;;;;;;;;;;5010510;28;20057;-68
2021/12/29 10:10:33;;;;;;;16.60;4.38;;;;;;;;;;5012322;28;20026;-68
2021/12/29 10:12:59;;;;;;;23.55;4.28;;;;;;;;;;5012603;28;20029;-69
2021/12/29 10:15:29;;;;;;;6.25;3.22;;;;;;;;;;5012716;28;20386;-69
2021/12/29 10:18:05;;;;;;;13.07;4.20;;;;;;;;;;5013210;28;20022;-68
2021/12/29 10:20:31;;;;;;;12.70;4.00;;;;;;;;;;5012314;28;20038;-68
2021/12/29 10:22:57;;;;;;;10.15;4.13;;;;;;;;;;5010415;28;20045;-68
2021/12/29 10:25:24;;;;;;;12.68;4.35;;;;;;;;;;5012452;28;20026;-69
2021/12/29 10:27:50;;;;;;;14.93;4.22;;;;;;;;;;5011817;28;20024;-68
2021/12/29 10:30:20;;;;;;;10.05;3.85;;;;;;;;;;5011874;28;20022;-69
2021/12/29 10:32:45;;;;;;;13.50;4.72;;;;;;;;;;5012609;28;20022;-69
2021/12/29 10:35:19;;;;;;;9.38;3.70;;;;;;;;;;5011140;28;20048;-69
2021/12/29 10:37:44;;;;;;;11.63;4.82;;;;;;;;;;5012549;28;20022;-69
2021/12/29 10:40:14;;;;;;;15.77;4.27;;;;;;;;;;5011585;28;20030;-69
2021/12/29 10:42:39;;;;;;;9.38;4.38;;;;;;;;;;5012573;28;20289;-69
2021/12/29 10:45:04;;;;;;;16.67;4.90;;;;;;;;;;5009599;28;20469;-69
2021/12/29 10:47:31;;;;;;;11.27;4.00;;;;;;;;;;5010262;28;20277;-68
2021/12/29 10:49:56;;;;;;;24.45;5.80;;;;;;;;;;5010580;28;20028;-69
2021/12/29 10:52:28;;;;;;;10.18;4.55;;;;;;;;;;5010645;28;20117;-68
2021/12/29 10:54:54;;;;;;;18.55;5.35;;;;;;;;;;5005179;28;20824;-68
2021/12/29 10:57:19;;;;;;;15.77;5.97;;;;;;;;;;5011894;28;20117;-68
2021/12/29 10:59:44;;;;;;;17.53;5.17;;;;;;;;;;5010012;28;20264;-68
2021/12/29 11:02:10;;;;;;;10.13;5.25;;;;;;;;;;5009563;28;20643;-69
2021/12/29 11:04:36;;;;;;;19.00;6.82;;;;;;;;;;5010978;28;20026;-68
2021/12/29 11:07:02;;;;;;;12.43;6.03;;;;;;;;;;5012209;28;20120;-67
2021/12/29 11:09:35;;;;;;;14.07;6.50;;;;;;;;;;5013801;28;20057;-67
2021/12/29 11:12:01;;;;;;;14.15;5.45;;;;;;;;;;5011545;28;20486;-67
2021/12/29 11:14:31;;;;;;;24.52;7.95;;;;;;;;;;5011537;28;20410;-67
2021/12/29 11:17:02;;;;;;;11.75;5.75;;;;;;;;;;5006986;28;20053;-68
2021/12/29 11:19:27;;;;;;;20.27;6.57;;;;;;;;;;5009627;28;20104;-68
2021/12/29 11:22:03;;;;;;;14.82;5.40;;;;;;;;;;5010159;28;20455;-68
2021/12/29 11:24:28;;;;;;;14.77;6.03;;;;;;;;;;5011517;28;20049;-68
2021/12/29 11:26:53;;;;;;;14.80;6.60;;;;;;;;;;5006137;28;20076;-68
2021/12/29 11:29:20;;;;;;;12.93;5.82;;;;;;;;;;5000454;28;20273;-68
2021/12/29 11:31:47;;;;;;;13.13;6.13;;;;;;;;;;5022193;28;20032;-68
2021/12/29 11:34:14;;;;;;;12.93;5.18;;;;;;;;;;5027225;28;20450;-68
2021/12/29 11:36:39;;;;;;;14.15;5.45;;;;;;;;;;5012035;28;20034;-68
2021/12/29 11:39:05;;;;;;;9.52;3.33;;;;;;;;;;5011118;28;20009;-68
2021/12/29 11:41:30;;;;;;;9.33;3.47;;;;;;;;;;5010638;28;20033;-68
2021/12/29 11:43:55;;;;;;;11.02;4.18;;;;;;;;;;5011300;28;20327;-67
2021/12/29 11:46:24;;;;;;;13.00;5.68;;;;;;;;;;5010687;28;20021;-68
2021/12/29 11:48:50;;;;;;;9.82;4.80;;;;;;;;;;5011007;28;20408;-67
2021/12/29 11:51:16;;;;;;;8.18;3.40;;;;;;;;;;5009986;28;20040;-69
2021/12/29 11:53:43;;;;;;;8.60;4.40;;;;;;;;;;5011077;28;20088;-68
2021/12/29 11:56:14;;;;;;;13.70;4.85;;;;;;;;;;5010645;28;20450;-68
2021/12/29 11:58:41;;;;;;;9.32;3.65;;;;;;;;;;5006034;28;20109;-67
2021/12/29 12:01:09;;;;;;;14.73;4.93;;;;;;;;;;5010348;28;20026;-68
2021/12/29 12:03:43;;;;;;;8.43;3.65;;;;;;;;;;5008675;28;20053;-68
2021/12/29 12:06:20;;;;;;;14.43;3.97;;;;;;;;;;5010615;28;20022;-68
2021/12/29 12:08:46;;;;;;;10.25;2.13;;;;;;;;;;5010931;28;20052;-68
2021/12/29 12:11:27;;;;;;;12.07;3.55;;;;;;;;;;5010358;28;20025;-68
2021/12/29 12:13:52;;;;;;;15.98;4.70;;;;;;;;;;5010703;28;20781;-68
2021/12/29 12:16:19;;;;;;;15.55;4.85;;;;;;;;;;5011261;28;20026;-67
2021/12/29 12:18:46;;;;;;;9.55;3.40;;;;;;;;;;5010510;28;20026;-68
2021/12/29 12:21:28;;;;;;;9.57;3.65;;;;;;;;;;5010320;28;20051;-68
2021/12/29 12:23:54;;;;;;;10.60;4.25;;;;;;;;;;5009702;28;20277;-67
2021/12/29 12:26:22;;;;;;;12.40;3.13;;;;;;;;;;5008776;28;20113;-68
2021/12/29 12:28:51;;;;;;;8.38;3.17;;;;;;;;;;5010607;28;20022;-68
2021/12/29 12:31:34;;;;;;;4.07;2.80;;;;;;;;;;5009674;28;20425;-68
2021/12/29 12:34:07;;;;;;;3.65;1.73;;;;;;;;;;5009019;28;20022;-68
2021/12/29 12:36:33;;;;;;;9.10;2.58;;;;;;;;;;5010152;28;20026;-68
2021/12/29 12:39:12;;;;;;;9.90;3.13;;;;;;;;;;5010680;28;20021;-68
2021/12/29 12:41:39;;;;;;;10.23;3.92;;;;;;;;;;5010282;28;20022;-68
2021/12/29 12:44:04;;;;;;;8.40;2.90;;;;;;;;;;5009999;28;20018;-68
2021/12/29 12:46:44;;;;;;;8.35;2.97;;;;;;;;;;5010522;28;20589;-68
2021/12/29 12:49:18;;;;;;;8.82;3.17;;;;;;;;;;5001429;28;20036;-69
2021/12/29 12:52:02;;;;;;;9.18;2.47;;;;;;;;;;5008395;28;20083;-68
2021/12/29 12:54:28;;;;;;;12.65;2.83;;;;;;;;;;5005755;28;20125;-69
2021/12/29 12:56:55;;;;;;;11.40;2.45;;;;;;;;;;5008628;28;20018;-68
2021/12/29 12:59:20;;;;;;;3.58;1.90;;;;;;;;;;5009193;28;20033;-68
2021/12/29 13:01:46;;;;;;;8.70;2.05;;;;;;;;;;5009497;28;20022;-68
2021/12/29 13:04:15;;;;;;;6.38;2.30;;;;;;;;;;5007256;28;20363;-67
2021/12/29 13:06:41;;;;;;;4.15;1.70;;;;;;;;;;5008781;28;20028;-68
2021/12/29 13:09:07;;;;;;;9.13;2.15;;;;;;;;;;5009602;28;20093;-67
2021/12/29 13:11:35;;;;;;;16.52;2.00;;;;;;;;;;5007849;28;20493;-68
2021/12/29 13:14:01;;;;;;;4.57;1.80;;;;;;;;;;5009982;28;20049;-68
2021/12/29 13:16:27;;;;;;;7.25;1.75;;;;;;;;;;5009467;28;20034;-68
2021/12/29 13:18:53;;;;;;;3.78;1.58;;;;;;;;;;5003547;28;20475;-68
2021/12/29 13:21:21;;;;;;;3.55;1.30;;;;;;;;;;5000467;28;20021;-68
2021/12/29 13:23:47;;;;;;;8.50;2.45;;;;;;;;;;5008285;28;20018;-67
2021/12/29 13:26:12;;;;;;;4.35;1.75;;;;;;;;;;5008932;28;20040;-67
2021/12/29 13:28:38;;;;;;;2.63;1.02;;;;;;;;;;5009998;28;20022;-67
2021/12/29 13:31:12;;;;;;;8.02;1.48;;;;;;;;;;5009442;28;20075;-67
2021/12/29 13:33:40;;;;;;;8.55;2.45;;;;;;;;;;5010690;28;20034;-67
2021/12/29 13:36:07;;;;;;;3.50;0.80;;;;;;;;;;5010455;28;20028;-67
2021/12/29 13:38:33;;;;;;;9.93;2.28;;;;;;;;;;5009320;28;20080;-67
2021/12/29 13:41:00;;;;;;;6.13;1.60;;;;;;;;;;5010638;28;20018;-67
2021/12/29 13:43:26;;;;;;;4.15;1.20;;;;;;;;;;5010175;28;20018;-68
2021/12/29 13:45:56;;;;;;;5.50;1.85;;;;;;;;;;5010041;28;20049;-68
2021/12/29 13:48:26;;;;;;;3.13;1.40;;;;;;;;;;5010520;28;20036;-69
2021/12/29 13:51:00;;;;;;;5.70;1.40;;;;;;;;;;5010492;28;20483;-69
2021/12/29 13:53:26;;;;;;;0.68;0.40;;;;;;;;;;5010445;28;20384;-66
2021/12/29 13:55:51;;;;;;;3.30;0.47;;;;;;;;;;5010299;28;20037;-67
2021/12/29 13:58:17;;;;;;;3.90;1.10;;;;;;;;;;5009866;28;20378;-67
2021/12/29 14:00:42;;;;;;;8.27;1.53;;;;;;;;;;5009320;28;20025;-67
2021/12/29 14:03:08;;;;;;;3.03;1.48;;;;;;;;;;5008226;28;20273;-66
2021/12/29 14:05:41;;;;;;;5.05;2.00;;;;;;;;;;5009187;28;20538;-66
2021/12/29 14:08:08;;;;;;;9.40;2.22;;;;;;;;;;5010986;28;20149;-66
2021/12/29 14:10:34;;;;;;;5.78;2.15;;;;;;;;;;5010037;28;20018;-66
2021/12/29 14:13:16;;;;;;;7.80;1.55;;;;;;;;;;5013909;28;20427;-67
2021/12/29 14:15:42;;;;;;;1.85;1.05;;;;;;;;;;5013686;28;20021;-67
2021/12/29 14:18:18;;;;;;;1.80;1.00;;;;;;;;;;5013504;28;20072;-67
2021/12/29 14:20:43;;;;;;;3.90;0.98;;;;;;;;;;5012986;28;20022;-66
2021/12/29 14:23:09;;;;;;;1.75;0.90;;;;;;;;;;5013558;28;20605;-67
2021/12/29 14:25:36;;;;;;;2.47;1.10;;;;;;;;;;5012341;28;20053;-66
2021/12/29 14:28:01;;;;;;;7.03;1.10;;;;;;;;;;5020618;28;20079;-67
2021/12/29 14:30:26;;;;;;;3.20;1.10;;;;;;;;;;5012494;28;20021;-66
2021/12/29 14:32:58;;;;;;;0.98;0.70;;;;;;;;;;5013176;28;20459;-66
2021/12/29 14:35:24;;;;;;;2.90;0.73;;;;;;;;;;5013913;28;20097;-67
2021/12/29 14:37:50;;;;;;;4.10;0.70;;;;;;;;;;5013133;28;20079;-67
2021/12/29 14:40:19;;;;;;;2.80;1.33;;;;;;;;;;5012825;28;20018;-66
2021/12/29 14:42:45;;;;;;;2.42;1.13;;;;;;;;;;5012848;28;20010;-67
2021/12/29 14:45:10;;;;;;;4.10;1.02;;;;;;;;;;5013642;28;20226;-67
2021/12/29 14:47:36;;;;;;;2.83;1.03;;;;;;;;;;5013363;28;20044;-67
2021/12/29 14:50:06;;;;;;;0.77;0.35;;;;;;;;;;5013201;28;20257;-66
2021/12/29 14:52:36;;;;;;;9.48;1.35;;;;;;;;;;5013023;28;20065;-67
2021/12/29 14:57:30;;;;;;;1.00;0.80;;;;;;;;;;5011100;28;20289;-66
2021/12/29 15:00:04;;;;;;;3.10;1.27;;;;;;;;;;5011523;28;20014;-66
2021/12/29 15:02:29;;;;;;;6.07;1.42;;;;;;;;;;5011604;28;20016;-66
2021/12/29 15:05:02;;;;;;;7.57;1.42;;;;;;;;;;5004302;28;20018;-66
2021/12/29 15:07:29;;;;;;;0.95;0.70;;;;;;;;;;4992630;28;20033;-66
2021/12/29 15:09:57;;;;;;;0.95;0.63;;;;;;;;;;4992915;28;20068;-66